Piedmont, KS (67122)

10:35 AM CDT on April 27, 2015 (GMT -0500)
NonFedAWOS | | Change Station
CLOSE
Current Station
Personal Weather Station
Location: Eureka, KS
Elevation: 1208 ft
Nearby Weather Stations

Elev 1208 ft 37.85 °N, 96.29 °W | Updated 17 minutes ago

Partly Cloudy
Partly Cloudy
57 °F
Feels Like 57 °F
N
27
Wind Variable Wind from ENE
Gusts 35.0 mph

Today
High -- | Low -- °F
--% Chance of Precip.
Yesterday
High -- | Low -- °F
Precip. -- in
6:35 AM 8:12 PM
Waxing Gibbous, 65% visible
Pressure 30.04 in
Visibility 10.0 miles
Clouds Clear
Dew Point 37 °F
Humidity 47%
Rainfall in
Snow Depth Not available.
UV 5 out of 12
Pollen 11.50 out of 12
Air Quality Not available.
Flu Activity Sporadic
METAR KAAO 271454Z AUTO 06020G26KT 10SM CLR 12/03 A3004 RMK AO2 PK WND 06026/1452 SLP173 T01220028 51012

More Conditions Fewer Conditions

Pressure 30.04 in
Visibility 10.0 miles
Clouds Clear
Dew Point 37 °F
Humidity 47%
Rainfall in
Snow Depth Not available.
UV 5 out of 12
Pollen 11.50 out of 12
Air Quality Not available.
Flu Activity Sporadic
METAR KAAO 271454Z AUTO 06020G26KT 10SM CLR 12/03 A3004 RMK AO2 PK WND 06026/1452 SLP173 T01220028 51012

More Conditions Fewer Conditions

10-Day Weather Forecast

Almanac

Astronomy

Apr. 27, 2015 Rise Set
Actual Time
Civil Twilight
Nautical Twilight
Astronomical Twilight
Moon
Length of Visible Light
Length of Day
Tomorrow will be .
, % of the Moon is Illuminated

Today's Extremes

State Highs State Lows

Community

WunderPhotos

Upload Photos

1,817,327 photos uploaded!

WunderBlogs® & News

Nearby

Air Quality

  Air Quality AQ Index Pollutant
Not available.

Snow Depth

Station Depth Elevation

Earthquake Activity

City Distance Mag. Time & Date
Minimum magnitude displayed is 2.5.

Coastal Water Temperatures

Place Temperature

Stations

Nearby Weather Stations

Station Location Temp. Windchill Dew Point Humidity Wind Precip. Elev Updated Type